createdAt,value
2019-02-06T00:01:46.979Z,99603.52
2019-02-06T00:04:19.185Z,99606.79
2019-02-06T00:06:51.362Z,99608.09
2019-02-06T00:09:23.831Z,99597.84
2019-02-06T00:11:56.274Z,99606.79
2019-02-06T00:14:29.457Z,99605.25
2019-02-06T00:17:01.913Z,99604.54
2019-02-06T00:19:34.325Z,99603.80
2019-02-06T00:22:09.211Z,99605.92
2019-02-06T00:24:44.003Z,99604.45
2019-02-06T00:27:16.163Z,99611.20
2019-02-06T00:29:48.533Z,99601.27
2019-02-06T00:32:21.045Z,99604.19
2019-02-06T00:34:53.719Z,99605.80
2019-02-06T00:37:26.330Z,99601.55
2019-02-06T00:39:58.697Z,99596.08
2019-02-06T00:42:31.566Z,99598.55
2019-02-06T00:45:04.071Z,99600.79
2019-02-06T00:47:36.720Z,99606.63
2019-02-06T00:50:11.249Z,99601.11
2019-02-06T00:52:44.040Z,99598.79
2019-02-06T00:55:16.642Z,99602.65
2019-02-06T00:57:48.989Z,99605.41
2019-02-06T01:00:23.518Z,99610.73
2019-02-06T01:02:55.713Z,99605.95
2019-02-06T01:05:38.051Z,99608.09
2019-02-06T01:08:02.145Z,99602.17
2019-02-06T01:10:34.628Z,99605.65
2019-02-06T01:13:07.202Z,99602.96
2019-02-06T01:15:39.734Z,99603.31
2019-02-06T01:18:12.367Z,99601.62
2019-02-06T01:20:44.747Z,99598.44
2019-02-06T01:23:17.110Z,99596.34
2019-02-06T01:25:49.575Z,99595.39
2019-02-06T01:28:22.491Z,99600.59
2019-02-06T01:31:05.145Z,99608.42
2019-02-06T01:33:37.862Z,99610.05
2019-02-06T01:36:10.499Z,99617.84
2019-02-06T01:38:43.064Z,99616.77
2019-02-06T01:41:15.433Z,99607.34
2019-02-06T01:43:47.593Z,99602.38
2019-02-06T01:46:19.852Z,99601.07
2019-02-06T01:48:52.592Z,99602.87
2019-02-06T01:51:26.084Z,99602.11
2019-02-06T01:53:58.263Z,99599.64
2019-02-06T01:56:30.720Z,99592.70
2019-02-06T01:59:03.103Z,99595.16
2019-02-06T02:01:35.793Z,99592.56
2019-02-06T02:04:08.675Z,99591.55
2019-02-06T02:06:41.333Z,99583.22
2019-02-06T02:09:19.763Z,99584.66
2019-02-06T02:11:51.930Z,99582.92
2019-02-06T02:14:24.097Z,99593.31
2019-02-06T02:16:56.461Z,99588.73
2019-02-06T02:19:28.825Z,99588.73
2019-02-06T02:22:01.623Z,99582.17
2019-02-06T02:24:34.080Z,99578.98
2019-02-06T02:27:06.733Z,99571.09
2019-02-06T02:29:39.472Z,99557.59
2019-02-06T02:32:12.005Z,99550.20
2019-02-06T02:34:44.691Z,99553.98
2019-02-06T02:37:17.393Z,99545.52
2019-02-06T02:39:50.120Z,99552.80
2019-02-06T02:42:22.508Z,99553.63
2019-02-06T02:44:54.620Z,99550.48
2019-02-06T02:47:27.405Z,99554.81
2019-02-06T02:49:59.721Z,99553.87
2019-02-06T02:52:32.115Z,99551.36
2019-02-06T02:55:05.149Z,99559.97
2019-02-06T02:57:37.427Z,99553.91
2019-02-06T03:00:17.560Z,99553.34
2019-02-06T03:02:58.260Z,99547.95
2019-02-06T03:05:32.514Z,99554.42
2019-02-06T03:08:05.022Z,99557.99
2019-02-06T03:10:37.522Z,99548.86
2019-02-06T03:13:10.292Z,99542.80
2019-02-06T03:15:42.743Z,99544.50
2019-02-06T03:18:15.526Z,99547.67
2019-02-06T03:20:48.112Z,99539.84
2019-02-06T03:23:20.852Z,99546.30
2019-02-06T03:25:53.180Z,99547.95
2019-02-06T03:28:25.256Z,99548.71
2019-02-06T03:30:58.274Z,99540.24
2019-02-06T03:33:30.639Z,99549.48
2019-02-06T03:36:02.973Z,99549.45
2019-02-06T03:38:35.216Z,99547.25
2019-02-06T03:41:07.775Z,99547.17
2019-02-06T03:43:40.190Z,99544.69
2019-02-06T03:46:12.829Z,99549.63
2019-02-06T03:48:45.385Z,99539.67
2019-02-06T03:51:18.110Z,99544.73
2019-02-06T03:53:50.473Z,99548.19
2019-02-06T03:56:22.804Z,99550.68
2019-02-06T03:58:54.871Z,99550.09
2019-02-06T04:01:27.884Z,99548.84
2019-02-06T04:04:00.351Z,99557.42
2019-02-06T04:06:32.890Z,99549.02
2019-02-06T04:09:08.480Z,99552.66
2019-02-06T04:11:40.573Z,99558.08
2019-02-06T04:14:12.723Z,99555.48
2019-02-06T04:16:45.492Z,99562.51
2019-02-06T04:19:17.864Z,99551.91
2019-02-06T04:21:50.236Z,99555.44
2019-02-06T04:24:22.683Z,99554.79
2019-02-06T04:26:55.027Z,99546.13
2019-02-06T04:29:27.136Z,99550.28
2019-02-06T04:31:59.249Z,99560.88
2019-02-06T04:34:31.376Z,99563.69
2019-02-06T04:37:06.613Z,99558.57
2019-02-06T04:39:37.946Z,99552.34
2019-02-06T04:42:10.381Z,99549.09
2019-02-06T04:44:42.909Z,99545.38
2019-02-06T04:47:15.242Z,99543.89
2019-02-06T04:49:48.373Z,99553.38
2019-02-06T04:52:20.901Z,99540.25
2019-02-06T04:54:53.456Z,99529.87
2019-02-06T04:57:25.812Z,99532.61
2019-02-06T04:59:58.465Z,99533.05
2019-02-06T05:02:31.240Z,99539.31
2019-02-06T05:05:03.599Z,99527.09
2019-02-06T05:07:35.997Z,99529.25
2019-02-06T05:10:10.945Z,99531.14
2019-02-06T05:12:43.538Z,99535.30
2019-02-06T05:15:17.234Z,99531.47
2019-02-06T05:17:49.405Z,99526.97
2019-02-06T05:20:36.375Z,99529.56
2019-02-06T05:23:09.986Z,99530.23
2019-02-06T05:25:42.168Z,99531.73
2019-02-06T05:28:17.884Z,99526.28
2019-02-06T05:30:48.511Z,99529.41
2019-02-06T05:33:20.582Z,99532.37
2019-02-06T05:35:53.695Z,99533.49
2019-02-06T05:38:26.092Z,99522.45
2019-02-06T05:40:58.543Z,99518.70
2019-02-06T05:43:31.190Z,99512.78
2019-02-06T05:46:03.892Z,99520.50
2019-02-06T05:48:36.660Z,99511.98
2019-02-06T05:51:09.050Z,99511.71
2019-02-06T05:53:41.701Z,99514.44
2019-02-06T05:56:14.070Z,99512.38
2019-02-06T05:58:46.610Z,99518.66
2019-02-06T06:01:21.204Z,99525.35
2019-02-06T06:03:53.366Z,99530.08
2019-02-06T06:06:25.551Z,99524.19
2019-02-06T06:08:57.887Z,99523.63
2019-02-06T06:11:30.277Z,99527.28
2019-02-06T06:14:02.984Z,99529.44
2019-02-06T06:16:35.451Z,99532.70
2019-02-06T06:19:07.878Z,99532.84
2019-02-06T06:21:40.578Z,99529.17
2019-02-06T06:24:12.926Z,99527.74
2019-02-06T06:26:45.024Z,99524.72
2019-02-06T06:29:17.071Z,99530.00
2019-02-06T06:31:49.184Z,99538.59
2019-02-06T06:34:21.694Z,99534.59
2019-02-06T06:36:56.719Z,99533.12
2019-02-06T06:39:27.962Z,99536.63
2019-02-06T06:42:00.054Z,99532.84
2019-02-06T06:44:32.103Z,99533.66
2019-02-06T06:47:04.473Z,99533.93
2019-02-06T06:49:36.964Z,99537.63
2019-02-06T06:52:09.618Z,99543.10
2019-02-06T06:54:42.089Z,99541.70
2019-02-06T06:57:14.546Z,99537.75
2019-02-06T06:59:46.935Z,99532.73
2019-02-06T07:02:19.817Z,99541.19
2019-02-06T07:04:52.227Z,99541.66
2019-02-06T07:07:24.584Z,99539.69
2019-02-06T07:09:57.043Z,99535.97
2019-02-06T07:12:29.414Z,99538.65
2019-02-06T07:15:02.040Z,99543.58
2019-02-06T07:17:34.474Z,99547.23
2019-02-06T07:20:09.537Z,99544.27
2019-02-06T07:22:42.072Z,99548.30
2019-02-06T07:25:16.312Z,99550.59
2019-02-06T07:27:48.594Z,99546.99
2019-02-06T07:30:27.545Z,99551.56
2019-02-06T07:33:00.051Z,99557.28
2019-02-06T07:35:32.593Z,99558.69
2019-02-06T07:38:05.341Z,99561.23
2019-02-06T07:40:37.702Z,99566.50
2019-02-06T07:43:10.084Z,99567.83
2019-02-06T07:45:42.431Z,99561.11
2019-02-06T07:48:14.816Z,99559.08
2019-02-06T07:50:47.339Z,99555.30
2019-02-06T07:53:20.089Z,99558.72
2019-02-06T07:55:52.846Z,99551.00
2019-02-06T07:58:25.291Z,99558.43
2019-02-06T08:00:57.671Z,99552.34
2019-02-06T08:03:30.131Z,99549.20
2019-02-06T08:06:02.866Z,99554.03
2019-02-06T08:08:36.498Z,99549.81
2019-02-06T08:11:08.624Z,99542.99
2019-02-06T08:13:41.493Z,99547.28
2019-02-06T08:16:14.715Z,99550.13
2019-02-06T08:18:45.863Z,99554.97
2019-02-06T08:21:18.136Z,99560.20
2019-02-06T08:23:50.642Z,99553.77
2019-02-06T08:26:24.160Z,99551.38
2019-02-06T08:28:57.062Z,99555.69
2019-02-06T08:31:29.245Z,99559.33
2019-02-06T08:34:01.654Z,99558.97
2019-02-06T08:36:34.379Z,99556.02
2019-02-06T08:39:10.433Z,99549.58
2019-02-06T08:41:42.618Z,99548.00
2019-02-06T08:44:15.225Z,99544.03
2019-02-06T08:46:47.947Z,99540.73
2019-02-06T08:49:20.893Z,99546.59
2019-02-06T08:51:53.391Z,99540.53
2019-02-06T08:54:25.943Z,99539.98
2019-02-06T08:57:00.880Z,99544.51
2019-02-06T08:59:36.065Z,99547.58
2019-02-06T09:02:07.443Z,99554.31
2019-02-06T09:04:39.935Z,99557.30
2019-02-06T09:07:12.318Z,99553.02
2019-02-06T09:09:45.076Z,99547.84
2019-02-06T09:12:17.722Z,99545.35
2019-02-06T09:14:50.145Z,99549.52
2019-02-06T09:17:22.520Z,99540.62
2019-02-06T09:19:54.905Z,99551.42
2019-02-06T09:22:27.261Z,99552.98
2019-02-06T09:24:59.637Z,99559.42
2019-02-06T09:27:32.384Z,99553.17
2019-02-06T09:30:05.470Z,99551.91
2019-02-06T09:32:37.824Z,99560.02
2019-02-06T09:35:11.055Z,99560.05
2019-02-06T09:37:43.929Z,99556.52
2019-02-06T09:40:17.686Z,99555.48
2019-02-06T09:42:50.377Z,99552.66
2019-02-06T09:45:22.847Z,99557.91
2019-02-06T09:47:55.334Z,99548.36
2019-02-06T09:50:31.198Z,99553.70
2019-02-06T09:53:03.478Z,99554.79
2019-02-06T09:55:36.229Z,99553.14
2019-02-06T09:58:09.051Z,99550.05
2019-02-06T10:00:41.713Z,99546.00
2019-02-06T10:03:14.087Z,99551.87
2019-02-06T10:05:46.292Z,99561.86
2019-02-06T10:08:18.701Z,99553.60
2019-02-06T10:10:50.782Z,99550.94
2019-02-06T10:13:22.851Z,99551.16
2019-02-06T10:15:55.062Z,99556.11
2019-02-06T10:18:27.463Z,99551.42
2019-02-06T10:20:59.646Z,99546.30
2019-02-06T10:23:31.745Z,99540.45
2019-02-06T10:26:03.840Z,99537.90
2019-02-06T10:28:35.903Z,99539.39
2019-02-06T10:31:08.014Z,99534.75
2019-02-06T10:33:40.148Z,99526.70
2019-02-06T10:36:12.339Z,99525.20
2019-02-06T10:38:45.031Z,99532.08
2019-02-06T10:41:17.405Z,99524.22
2019-02-06T10:43:50.066Z,99523.34
2019-02-06T10:46:22.455Z,99522.30
2019-02-06T10:48:54.522Z,99514.64
2019-02-06T10:51:27.619Z,99519.31
2019-02-06T10:54:00.384Z,99513.91
2019-02-06T10:56:33.270Z,99512.02
2019-02-06T10:59:05.803Z,99500.40
2019-02-06T11:01:38.171Z,99505.15
2019-02-06T11:04:10.566Z,99493.05
2019-02-06T11:06:42.939Z,99493.98
2019-02-06T11:09:15.091Z,99480.69
2019-02-06T11:11:47.175Z,99477.52
2019-02-06T11:14:19.323Z,99469.20
2019-02-06T11:16:51.722Z,99471.33
2019-02-06T11:19:24.605Z,99471.16
2019-02-06T11:21:57.069Z,99466.80
2019-02-06T11:24:29.414Z,99467.06
2019-02-06T11:27:01.577Z,99458.91
2019-02-06T11:29:33.984Z,99450.22
2019-02-06T11:32:06.518Z,99451.31
2019-02-06T11:34:39.033Z,99444.92
2019-02-06T11:37:11.836Z,99443.69
2019-02-06T11:39:44.457Z,99422.77
2019-02-06T11:42:16.817Z,99419.31
2019-02-06T11:44:48.903Z,99420.20
2019-02-06T11:47:21.606Z,99416.56
2019-02-06T11:49:56.523Z,99421.08
2019-02-06T11:52:29.455Z,99416.55
2019-02-06T11:55:01.666Z,99415.39
2019-02-06T11:57:34.052Z,99405.58
2019-02-06T12:00:11.670Z,99398.55
2019-02-06T12:02:44.749Z,99399.38
2019-02-06T12:05:17.534Z,99394.98
2019-02-06T12:07:49.892Z,99386.11
2019-02-06T12:10:23.186Z,99395.61
2019-02-06T12:12:56.196Z,99393.82
2019-02-06T12:15:28.890Z,99392.02
2019-02-06T12:18:01.318Z,99389.05
2019-02-06T12:20:33.655Z,99381.47
2019-02-06T12:23:06.883Z,99377.02
2019-02-06T12:25:39.234Z,99371.69
2019-02-06T12:28:12.487Z,99359.95
2019-02-06T12:30:45.160Z,99344.83
2019-02-06T12:33:17.934Z,99352.09
2019-02-06T12:35:50.281Z,99345.09
2019-02-06T12:38:22.347Z,99340.59
2019-02-06T12:40:54.860Z,99339.73
2019-02-06T12:43:26.961Z,99328.67
2019-02-06T12:45:59.021Z,99318.98
2019-02-06T12:48:31.478Z,99314.75
2019-02-06T12:51:04.103Z,99309.06
2019-02-06T12:53:36.932Z,99304.02
2019-02-06T12:56:09.559Z,99301.55
2019-02-06T12:58:41.920Z,99293.25
2019-02-06T13:01:14.011Z,99290.73
2019-02-06T13:03:46.129Z,99286.64
2019-02-06T13:06:18.575Z,99289.02
2019-02-06T13:08:51.106Z,99277.59
2019-02-06T13:11:23.463Z,99281.53
2019-02-06T13:13:55.557Z,99276.66
2019-02-06T13:16:28.049Z,99277.36
2019-02-06T13:19:00.727Z,99281.19
2019-02-06T13:21:33.079Z,99264.48
2019-02-06T13:24:05.750Z,99265.33
2019-02-06T13:26:38.143Z,99257.63
2019-02-06T13:29:10.292Z,99250.75
2019-02-06T13:31:43.419Z,99255.28
2019-02-06T13:34:15.779Z,99247.09
2019-02-06T13:36:47.850Z,99249.99
2019-02-06T13:39:20.044Z,99243.89
2019-02-06T13:41:52.675Z,99238.44
2019-02-06T13:44:25.355Z,99231.73
2019-02-06T13:46:57.417Z,99234.02
2019-02-06T13:49:29.594Z,99245.03
2019-02-06T13:52:02.031Z,99229.44
2019-02-06T13:54:34.673Z,99234.78
2019-02-06T13:57:07.137Z,99238.18
2019-02-06T13:59:39.506Z,99234.46
2019-02-06T14:02:11.553Z,99230.80
2019-02-06T14:04:43.719Z,99225.00
2019-02-06T14:07:16.067Z,99222.95
2019-02-06T14:09:48.512Z,99222.68
2019-02-06T14:12:20.922Z,99225.44
2019-02-06T14:14:53.293Z,99224.08
2019-02-06T14:17:25.983Z,99213.83
2019-02-06T14:20:01.040Z,99205.45
2019-02-06T14:22:32.995Z,99195.89
2019-02-06T14:25:22.618Z,99195.89
2019-02-06T14:28:45.008Z,99192.81
2019-02-06T14:31:50.493Z,99184.75
2019-02-06T14:34:55.085Z,99184.23
2019-02-06T14:37:49.176Z,99174.17
2019-02-06T14:41:21.169Z,99173.98
2019-02-06T14:44:32.825Z,99172.38
2019-02-06T14:48:26.200Z,99162.34
2019-02-06T14:52:03.485Z,99161.18
2019-02-06T14:55:29.149Z,99166.31
2019-02-06T14:59:32.081Z,99158.72
2019-02-06T15:03:02.186Z,99165.48
2019-02-06T15:06:46.572Z,99158.35
2019-02-06T15:10:22.028Z,99150.94
2019-02-06T15:14:03.986Z,99150.33
2019-02-06T15:17:22.396Z,99158.02
2019-02-06T15:20:52.559Z,99148.16
2019-02-06T15:24:00.636Z,99146.60
2019-02-06T15:27:14.518Z,99140.94
2019-02-06T15:31:04.014Z,99136.84
2019-02-06T15:34:15.514Z,99137.26
2019-02-06T15:37:30.083Z,99130.64
2019-02-06T15:41:11.241Z,99134.67
2019-02-06T15:44:38.348Z,99134.59
2019-02-06T15:47:55.214Z,99127.48
2019-02-06T15:51:14.508Z,99122.84
2019-02-06T15:54:14.409Z,99124.42
2019-02-06T15:58:00.967Z,99129.38
2019-02-06T16:02:03.421Z,99130.91
2019-02-06T16:05:35.630Z,99130.98
2019-02-06T16:09:06.889Z,99132.11
2019-02-06T16:12:26.538Z,99126.27
2019-02-06T16:15:54.204Z,99130.97
2019-02-06T16:19:16.114Z,99133.27
2019-02-06T16:22:44.040Z,99130.36
2019-02-06T16:26:42.080Z,99131.98
2019-02-06T16:30:12.532Z,99120.16
2019-02-06T16:33:56.954Z,99122.20
2019-02-06T16:37:10.770Z,99123.00
2019-02-06T16:40:47.841Z,99119.98
2019-02-06T16:44:20.051Z,99121.73
2019-02-06T16:47:57.675Z,99121.35
2019-02-06T16:51:17.164Z,99117.31
2019-02-06T16:54:37.394Z,99110.12
2019-02-06T16:57:45.013Z,99112.34
2019-02-06T17:01:30.432Z,99106.32
2019-02-06T17:05:03.015Z,99106.33
2019-02-06T17:08:40.112Z,99100.98
2019-02-06T17:12:17.867Z,99099.41
2019-02-06T17:15:53.085Z,99100.76
2019-02-06T17:19:15.233Z,99093.38
2019-02-06T17:22:52.318Z,99100.38
2019-02-06T17:26:03.045Z,99103.77
2019-02-06T17:29:01.753Z,99103.14
2019-02-06T17:32:25.045Z,99105.92
2019-02-06T17:35:58.929Z,99103.97
2019-02-06T17:39:09.980Z,99092.06
2019-02-06T17:42:43.062Z,99089.19
2019-02-06T17:46:18.133Z,99082.14
2019-02-06T17:49:35.049Z,99083.67
2019-02-06T17:53:16.363Z,99074.27
2019-02-06T17:55:49.453Z,99079.31
2019-02-06T17:58:21.795Z,99075.02
2019-02-06T18:01:09.583Z,99077.36
2019-02-06T18:03:47.479Z,99080.18
2019-02-06T18:06:19.620Z,99075.89
2019-02-06T18:08:56.940Z,99077.80
2019-02-06T18:11:26.207Z,99082.27
2019-02-06T18:13:59.725Z,99080.63
2019-02-06T18:16:31.946Z,99078.52
2019-02-06T18:19:05.264Z,99077.34
2019-02-06T18:21:37.193Z,99080.08
2019-02-06T18:24:09.478Z,99077.64
2019-02-06T18:26:49.239Z,99081.06
2019-02-06T18:29:21.812Z,99070.44
2019-02-06T18:31:54.652Z,99070.99
2019-02-06T18:34:27.144Z,99066.20
2019-02-06T18:37:00.452Z,99069.69
2019-02-06T18:39:32.962Z,99074.28
2019-02-06T18:42:05.933Z,99075.36
2019-02-06T18:44:38.453Z,99075.80
2019-02-06T18:47:11.045Z,99072.55
2019-02-06T18:49:43.422Z,99073.08
2019-02-06T18:52:20.396Z,99067.55
2019-02-06T18:54:49.805Z,99070.69
2019-02-06T18:57:22.326Z,99063.86
2019-02-06T18:59:55.075Z,99069.59
2019-02-06T19:02:32.825Z,99069.21
2019-02-06T19:05:07.560Z,99065.27
2019-02-06T19:07:39.738Z,99062.71
2019-02-06T19:10:14.036Z,99060.11
2019-02-06T19:12:47.956Z,99056.42
2019-02-06T19:15:20.337Z,99052.97
2019-02-06T19:17:53.373Z,99054.84
2019-02-06T19:20:26.979Z,99051.93
2019-02-06T19:22:59.074Z,99047.25
2019-02-06T19:25:31.770Z,99047.16
2019-02-06T19:28:04.118Z,99045.05
2019-02-06T19:30:42.115Z,99043.75
2019-02-06T19:33:17.076Z,99036.75
2019-02-06T19:35:48.406Z,99033.30
2019-02-06T19:38:20.872Z,99034.54
2019-02-06T19:40:53.399Z,99035.95
2019-02-06T19:43:26.258Z,99034.16
2019-02-06T19:45:58.719Z,99031.13
2019-02-06T19:48:31.112Z,99031.56
2019-02-06T19:51:03.510Z,99027.19
2019-02-06T19:53:35.891Z,99023.76
2019-02-06T19:56:08.783Z,99023.81
2019-02-06T19:58:41.182Z,99021.05
2019-02-06T20:01:13.769Z,99017.65
2019-02-06T20:03:46.139Z,99017.65
2019-02-06T20:06:33.818Z,99009.05
2019-02-06T20:09:16.528Z,99001.77
2019-02-06T20:11:49.131Z,98995.72
2019-02-06T20:14:21.600Z,98993.22
2019-02-06T20:16:53.999Z,98993.61
2019-02-06T20:19:26.942Z,98996.16
2019-02-06T20:21:59.304Z,98986.56
2019-02-06T20:24:31.400Z,98985.27
2019-02-06T20:27:03.548Z,98982.88
2019-02-06T20:29:35.915Z,98976.00
2019-02-06T20:32:08.811Z,98979.95
2019-02-06T20:34:41.275Z,98973.95
2019-02-06T20:37:13.635Z,98971.83
2019-02-06T20:39:46.393Z,98960.23
2019-02-06T20:42:18.929Z,98960.08
2019-02-06T20:44:51.301Z,98951.14
2019-02-06T20:47:23.416Z,98948.34
2019-02-06T20:49:56.237Z,98948.86
2019-02-06T20:52:29.067Z,98939.88
2019-02-06T20:55:02.207Z,98943.98
2019-02-06T20:57:34.737Z,98944.20
2019-02-06T21:00:11.587Z,98947.28
2019-02-06T21:02:44.064Z,98951.80
2019-02-06T21:05:16.642Z,98947.52
2019-02-06T21:07:49.254Z,98949.59
2019-02-06T21:10:24.601Z,98952.25
2019-02-06T21:12:56.886Z,98951.37
2019-02-06T21:15:29.264Z,98949.21
2019-02-06T21:18:02.746Z,98949.47
2019-02-06T21:20:34.904Z,98943.52
2019-02-06T21:23:07.436Z,98952.32
2019-02-06T21:25:39.684Z,98957.02
2019-02-06T21:28:12.136Z,98956.22
2019-02-06T21:30:46.921Z,98959.44
2019-02-06T21:33:18.662Z,98957.72
2019-02-06T21:35:50.805Z,98951.64
2019-02-06T21:38:23.559Z,98948.14
2019-02-06T21:40:55.940Z,98945.64
2019-02-06T21:43:28.391Z,98941.21
2019-02-06T21:46:01.081Z,98930.88
2019-02-06T21:48:33.444Z,98936.61
2019-02-06T21:51:05.988Z,98934.06
2019-02-06T21:53:38.478Z,98935.85
2019-02-06T21:56:10.927Z,98937.91
2019-02-06T21:58:43.856Z,98932.66
2019-02-06T22:01:16.294Z,98932.13
2019-02-06T22:03:49.231Z,98924.39
2019-02-06T22:06:21.698Z,98926.08
2019-02-06T22:08:54.197Z,98922.18
2019-02-06T22:11:26.652Z,98919.09
2019-02-06T22:13:59.104Z,98912.47
2019-02-06T22:16:31.451Z,98903.09
2019-02-06T22:19:03.962Z,98909.64
2019-02-06T22:21:36.628Z,98915.45
2019-02-06T22:24:08.978Z,98914.70
2019-02-06T22:26:41.334Z,98897.88
2019-02-06T22:29:13.789Z,98892.25
2019-02-06T22:31:46.557Z,98889.60
2019-02-06T22:34:19.205Z,98874.13
2019-02-06T22:36:51.350Z,98882.17
2019-02-06T22:39:23.834Z,98881.03
2019-02-06T22:41:56.250Z,98882.48
2019-02-06T22:44:28.624Z,98884.40
2019-02-06T22:47:00.801Z,98891.81
2019-02-06T22:49:33.150Z,98887.63
2019-02-06T22:52:06.233Z,98888.27
2019-02-06T22:54:38.424Z,98886.69
2019-02-06T22:57:10.884Z,98875.48
2019-02-06T22:59:43.633Z,98873.56
2019-02-06T23:02:16.257Z,98875.06
2019-02-06T23:04:48.714Z,98879.14
2019-02-06T23:07:21.134Z,98872.32
2019-02-06T23:09:54.267Z,98877.99
2019-02-06T23:12:27.407Z,98885.77
2019-02-06T23:14:58.573Z,98895.41
2019-02-06T23:17:30.665Z,98888.07
2019-02-06T23:20:03.443Z,98876.69
2019-02-06T23:22:36.116Z,98875.39
2019-02-06T23:25:09.564Z,98872.41
2019-02-06T23:27:41.899Z,98869.62
2019-02-06T23:30:14.392Z,98874.42
2019-02-06T23:32:47.291Z,98874.28
2019-02-06T23:35:19.737Z,98861.33
2019-02-06T23:37:52.120Z,98856.66
2019-02-06T23:40:24.480Z,98854.89
2019-02-06T23:42:56.536Z,98847.16
2019-02-06T23:45:29.268Z,98844.13
2019-02-06T23:48:01.334Z,98839.09
2019-02-06T23:50:33.721Z,98840.91
2019-02-06T23:53:07.369Z,98839.61
2019-02-06T23:55:39.532Z,98843.08
2019-02-06T23:58:11.874Z,98834.09
